Time;durP1;ratioP1;P1;durP2;ratioP2;P2;SDS_P1;SDS_P2;PMS_P1;PMS_P2;Temp;Humidity;BMP_temperature;BMP_pressure;BME280_temperature;BME280_humidity;BME280_pressure;Samples;Min_cycle;Max_cycle;Signal;HPM_P1;HPM_P2
2023/01/02 00:00:53;;;;;;;6.30;1.23;;;-0.30;99.90;;;;;;4781904;29;20520;-71
2023/01/02 00:03:20;;;;;;;3.92;1.02;;;-0.30;99.90;;;;;;4786650;29;20487;-72
2023/01/02 00:05:48;;;;;;;4.93;1.63;;;-0.30;99.90;;;;;;4785392;29;20047;-72
2023/01/02 00:08:17;;;;;;;9.48;2.10;;;-0.30;99.90;;;;;;4785125;29;20104;-71
2023/01/02 00:10:45;;;;;;;4.80;2.15;;;-0.30;99.90;;;;;;4766765;30;20494;-71
2023/01/02 00:13:12;;;;;;;4.45;1.58;;;-0.30;99.90;;;;;;4783880;30;20125;-72
2023/01/02 00:15:40;;;;;;;5.25;1.20;;;-0.30;99.90;;;;;;4781477;30;20124;-71
2023/01/02 00:18:08;;;;;;;6.45;1.27;;;-0.30;99.90;;;;;;4783509;29;20055;-72
2023/01/02 00:20:36;;;;;;;8.65;1.17;;;-0.30;99.90;;;;;;4783023;29;20111;-71
2023/01/02 00:23:03;;;;;;;3.53;0.95;;;-0.30;99.90;;;;;;4785193;30;20063;-72
2023/01/02 00:25:33;;;;;;;7.43;1.50;;;-0.30;99.90;;;;;;4784114;29;20054;-71
2023/01/02 00:28:01;;;;;;;4.05;1.02;;;-0.30;99.90;;;;;;4782384;30;20063;-71
2023/01/02 00:30:29;;;;;;;6.72;1.27;;;-0.30;99.90;;;;;;4779961;30;20246;-71
2023/01/02 00:32:56;;;;;;;4.25;0.90;;;-0.30;99.90;;;;;;4772124;29;20091;-71
2023/01/02 00:35:25;;;;;;;5.72;1.15;;;-0.40;99.90;;;;;;4799142;29;20047;-72
2023/01/02 00:37:53;;;;;;;5.25;1.08;;;-0.40;99.90;;;;;;4778406;29;20063;-70
2023/01/02 00:40:20;;;;;;;6.32;0.93;;;-0.40;99.90;;;;;;4784492;30;20079;-71
2023/01/02 00:42:47;;;;;;;4.05;0.90;;;-0.40;99.90;;;;;;4772624;30;20438;-71
2023/01/02 00:45:15;;;;;;;2.67;0.70;;;-0.40;99.90;;;;;;4771659;30;20138;-71
2023/01/02 00:47:42;;;;;;;1.58;0.52;;;-0.40;99.90;;;;;;4783206;29;20544;-71
2023/01/02 00:50:10;;;;;;;3.80;1.38;;;-0.40;99.90;;;;;;4783906;29;20765;-71
2023/01/02 00:52:39;;;;;;;3.20;0.82;;;-0.50;99.90;;;;;;4784058;29;20108;-70
2023/01/02 00:55:07;;;;;;;3.83;0.90;;;-0.50;99.90;;;;;;4785470;29;20082;-71
2023/01/02 00:57:34;;;;;;;2.35;1.00;;;-0.50;99.90;;;;;;4784153;29;20047;-71
2023/01/02 01:00:02;;;;;;;7.95;1.00;;;-0.50;99.90;;;;;;4785916;29;20051;-72
2023/01/02 01:02:31;;;;;;;8.73;1.35;;;-0.60;99.90;;;;;;4783979;29;20471;-71
2023/01/02 01:04:59;;;;;;;3.55;0.73;;;-0.60;99.90;;;;;;4784157;29;20550;-70
2023/01/02 01:07:26;;;;;;;5.20;0.82;;;-0.60;99.90;;;;;;4782921;29;20513;-71
2023/01/02 01:09:55;;;;;;;1.52;0.68;;;-0.50;99.90;;;;;;4784885;29;20162;-72
2023/01/02 01:12:22;;;;;;;4.30;1.10;;;-0.50;99.90;;;;;;4782447;29;20055;-71
2023/01/02 01:14:50;;;;;;;5.95;0.90;;;-0.60;99.90;;;;;;4784757;29;20067;-71
2023/01/02 01:17:17;;;;;;;2.72;0.57;;;-0.60;99.90;;;;;;4779061;30;20059;-71
2023/01/02 01:19:45;;;;;;;2.95;1.20;;;-0.60;99.90;;;;;;4776161;30;20055;-70
2023/01/02 01:22:12;;;;;;;2.25;0.85;;;-0.60;99.90;;;;;;4784971;29;20460;-71
2023/01/02 01:24:40;;;;;;;7.63;1.15;;;-0.60;99.90;;;;;;4783793;29;20047;-71
2023/01/02 01:27:09;;;;;;;2.00;0.75;;;-0.60;99.90;;;;;;4785741;29;20055;-71
2023/01/02 01:29:37;;;;;;;5.72;0.63;;;-0.60;99.90;;;;;;4782040;29;20540;-71
2023/01/02 01:32:05;;;;;;;6.03;1.73;;;-0.60;99.90;;;;;;4782657;30;20055;-70
2023/01/02 01:34:32;;;;;;;6.25;0.90;;;-0.60;99.90;;;;;;4783284;29;20138;-71
2023/01/02 01:36:59;;;;;;;6.18;1.45;;;-0.60;99.90;;;;;;4784593;29;20067;-71
2023/01/02 01:39:27;;;;;;;5.38;1.23;;;-0.60;99.90;;;;;;4785153;29;20147;-71
2023/01/02 01:41:54;;;;;;;2.67;1.48;;;-0.60;99.90;;;;;;4783981;29;20051;-71
2023/01/02 01:44:48;;;;;;;5.57;1.20;;;-0.60;99.90;;;;;;4782774;29;20421;-71
2023/01/02 01:47:23;;;;;;;4.07;1.05;;;-0.60;99.90;;;;;;4783392;30;20355;-72
2023/01/02 01:49:57;;;;;;;6.88;1.35;;;-0.60;99.90;;;;;;4783615;29;20159;-71
2023/01/02 01:52:28;;;;;;;5.75;0.75;;;-0.60;99.90;;;;;;4781926;30;20528;-71
2023/01/02 01:55:02;;;;;;;3.47;1.05;;;-0.60;99.90;;;;;;4783680;29;20066;-71
2023/01/02 01:57:34;;;;;;;3.40;0.90;;;-0.60;99.90;;;;;;4783367;30;20559;-71
2023/01/02 02:00:04;;;;;;;6.55;1.30;;;-0.60;99.90;;;;;;4785792;29;20075;-71
2023/01/02 02:02:35;;;;;;;6.50;1.33;;;-0.60;99.90;;;;;;4788030;29;20089;-71
2023/01/02 02:05:06;;;;;;;4.15;2.10;;;-0.60;99.90;;;;;;4785434;29;20063;-71
2023/01/02 02:07:39;;;;;;;7.18;1.48;;;-0.60;99.90;;;;;;4783311;29;20071;-70
2023/01/02 02:10:10;;;;;;;7.38;1.48;;;-0.60;99.90;;;;;;4786048;29;20115;-70
2023/01/02 02:12:37;;;;;;;3.92;1.02;;;-0.60;99.90;;;;;;4783165;29;20059;-72
2023/01/02 02:15:09;;;;;;;11.90;1.40;;;-0.60;99.90;;;;;;4786529;29;20056;-70
2023/01/02 02:17:52;;;;;;;6.93;1.30;;;-0.60;99.90;;;;;;4771285;30;20150;-71
2023/01/02 02:20:34;;;;;;;4.03;1.30;;;-0.60;99.90;;;;;;4771521;30;20638;-71
2023/01/02 02:23:51;;;;;;;10.02;1.42;;;-0.60;99.90;;;;;;4787836;29;20066;-71
2023/01/02 02:27:01;;;;;;;5.03;1.60;;;-0.60;99.90;;;;;;4784450;29;20059;-70
2023/01/02 02:30:07;;;;;;;5.13;1.27;;;-0.50;99.90;;;;;;4778552;30;20047;-70
2023/01/02 02:33:14;;;;;;;4.75;1.17;;;-0.60;99.90;;;;;;4770451;30;20097;-70
2023/01/02 02:35:54;;;;;;;2.22;0.85;;;-0.60;99.90;;;;;;4776500;30;20059;-70
2023/01/02 02:38:38;;;;;;;7.88;1.08;;;-0.60;99.90;;;;;;4787586;29;20062;-70
2023/01/02 02:41:20;;;;;;;5.60;1.00;;;-0.60;99.90;;;;;;4783530;30;20070;-70
2023/01/02 02:43:59;;;;;;;11.32;1.05;;;-0.60;99.90;;;;;;4787018;29;20142;-71
2023/01/02 02:46:38;;;;;;;6.63;0.95;;;-0.50;99.90;;;;;;4787561;29;20160;-71
2023/01/02 02:49:13;;;;;;;6.53;1.30;;;-0.50;99.90;;;;;;4786621;29;20487;-71
2023/01/02 02:51:48;;;;;;;7.63;1.52;;;-0.50;99.90;;;;;;4800180;29;20465;-71
2023/01/02 02:54:20;;;;;;;4.80;1.85;;;-0.50;99.90;;;;;;4784381;30;20051;-72
2023/01/02 02:56:50;;;;;;;5.93;1.42;;;-0.50;99.90;;;;;;4786339;29;20052;-70
2023/01/02 02:59:18;;;;;;;8.05;1.65;;;-0.50;99.90;;;;;;4785534;29;20055;-71
2023/01/02 03:01:47;;;;;;;9.95;1.80;;;-0.50;99.90;;;;;;4785188;29;20058;-71
2023/01/02 03:04:20;;;;;;;6.97;1.40;;;-0.50;99.90;;;;;;4786769;30;20154;-71
2023/01/02 03:07:08;;;;;;;4.57;1.00;;;-0.50;99.90;;;;;;4785274;29;20061;-72
2023/01/02 03:09:46;;;;;;;9.18;1.40;;;-0.50;99.90;;;;;;4779781;30;20152;-72
2023/01/02 03:12:28;;;;;;;4.88;1.00;;;-0.40;99.90;;;;;;4783517;30;20102;-70
2023/01/02 03:15:04;;;;;;;5.90;1.67;;;-0.40;99.90;;;;;;4778990;30;20154;-71
2023/01/02 03:17:50;;;;;;;8.25;1.10;;;-0.40;99.90;;;;;;4785497;29;20062;-71
2023/01/02 03:20:23;;;;;;;7.70;1.27;;;-0.40;99.90;;;;;;4787371;29;20080;-71
2023/01/02 03:22:58;;;;;;;3.75;1.00;;;-0.40;99.90;;;;;;4772379;29;20060;-71
2023/01/02 03:25:26;;;;;;;4.53;0.88;;;-0.40;99.90;;;;;;4781412;29;20067;-70
2023/01/02 03:27:59;;;;;;;6.57;1.42;;;-0.40;99.90;;;;;;4786168;29;20540;-72
2023/01/02 03:30:28;;;;;;;7.10;1.02;;;-0.30;99.90;;;;;;4785647;30;20059;-70
2023/01/02 03:33:02;;;;;;;11.52;1.10;;;-0.30;99.90;;;;;;4783076;30;20146;-70
2023/01/02 03:35:35;;;;;;;6.00;1.48;;;-0.30;99.90;;;;;;4785691;30;20586;-71
2023/01/02 03:38:05;;;;;;;4.70;1.10;;;-0.40;99.90;;;;;;4787218;29;20055;-71
2023/01/02 03:40:39;;;;;;;4.90;1.00;;;-0.40;99.90;;;;;;4785597;29;20133;-71
2023/01/02 03:43:13;;;;;;;5.25;0.65;;;-0.40;99.90;;;;;;4787480;29;20055;-72
2023/01/02 03:45:48;;;;;;;5.15;0.77;;;-0.40;99.90;;;;;;4796533;29;20089;-72
2023/01/02 03:48:29;;;;;;;7.97;1.58;;;-0.40;99.90;;;;;;4784059;29;20063;-71
2023/01/02 03:50:59;;;;;;;6.68;1.63;;;-0.40;99.90;;;;;;4787769;29;20479;-72
2023/01/02 03:53:28;;;;;;;6.05;0.77;;;-0.40;99.90;;;;;;4785345;29;20058;-71
2023/01/02 03:56:10;;;;;;;8.82;1.25;;;-0.40;99.90;;;;;;4787395;29;20059;-71
2023/01/02 03:58:47;;;;;;;5.20;1.05;;;-0.40;99.90;;;;;;4782569;29;20059;-72
2023/01/02 04:01:25;;;;;;;9.10;1.20;;;-0.40;99.90;;;;;;4786203;29;20055;-72
2023/01/02 04:04:01;;;;;;;8.77;1.50;;;-0.40;99.90;;;;;;4781944;29;20521;-72
2023/01/02 04:06:34;;;;;;;5.82;1.02;;;-0.40;99.90;;;;;;4782971;29;20073;-71
2023/01/02 04:09:06;;;;;;;3.95;0.90;;;-0.40;99.90;;;;;;4785726;29;20063;-71
2023/01/02 04:11:37;;;;;;;4.72;1.02;;;-0.40;99.90;;;;;;4777667;30;20050;-70
2023/01/02 04:14:15;;;;;;;12.98;1.83;;;-0.40;99.90;;;;;;4785755;29;20687;-72
2023/01/02 04:16:46;;;;;;;5.68;1.27;;;-0.40;99.90;;;;;;4786890;29;20062;-71
2023/01/02 04:19:23;;;;;;;5.72;0.80;;;-0.40;99.90;;;;;;4785247;30;20059;-71
2023/01/02 04:21:53;;;;;;;9.55;1.10;;;-0.40;99.90;;;;;;4783785;29;20521;-71
2023/01/02 04:24:26;;;;;;;5.05;1.08;;;-0.40;99.90;;;;;;4785439;29;20168;-71
2023/01/02 04:26:59;;;;;;;8.88;1.20;;;-0.40;99.90;;;;;;4783299;30;20161;-71
2023/01/02 04:29:27;;;;;;;6.05;0.98;;;-0.40;99.90;;;;;;4786066;29;20047;-71
2023/01/02 04:32:02;;;;;;;8.18;1.23;;;-0.40;99.90;;;;;;4782528;29;20051;-71
2023/01/02 04:34:35;;;;;;;4.65;1.02;;;-0.40;99.90;;;;;;4784187;29;20062;-71
2023/01/02 04:37:03;;;;;;;11.52;1.10;;;-0.30;99.90;;;;;;4784498;29;20104;-71
2023/01/02 04:39:31;;;;;;;2.75;0.68;;;-0.40;99.90;;;;;;4783804;29;20101;-71
2023/01/02 04:41:59;;;;;;;5.20;1.25;;;-0.40;99.90;;;;;;4785459;29;20059;-71
2023/01/02 04:44:26;;;;;;;7.10;1.38;;;-0.40;99.90;;;;;;4784195;29;20055;-71
2023/01/02 04:46:53;;;;;;;4.97;1.52;;;-0.40;99.90;;;;;;4783123;30;20425;-71
2023/01/02 04:49:25;;;;;;;4.80;1.13;;;-0.40;99.90;;;;;;4784031;29;20144;-71
2023/01/02 04:51:54;;;;;;;6.88;2.47;;;-0.40;99.90;;;;;;4796690;29;20146;-71
2023/01/02 04:54:21;;;;;;;4.85;1.35;;;-0.40;99.90;;;;;;4784811;29;20395;-71
2023/01/02 04:56:49;;;;;;;5.45;1.10;;;-0.40;99.90;;;;;;4781810;29;20059;-72
2023/01/02 04:59:16;;;;;;;14.35;4.47;;;-0.40;99.90;;;;;;4778398;30;20572;-71
2023/01/02 05:01:44;;;;;;;11.40;2.67;;;-0.40;99.90;;;;;;4782607;29;20059;-72
2023/01/02 05:04:11;;;;;;;5.25;1.75;;;-0.30;99.90;;;;;;4783678;29;20182;-71
2023/01/02 05:06:39;;;;;;;6.97;1.85;;;-0.30;99.90;;;;;;4785361;30;20070;-71
2023/01/02 05:09:08;;;;;;;5.90;1.40;;;-0.30;99.90;;;;;;4782804;29;20057;-71
2023/01/02 05:11:35;;;;;;;6.93;1.85;;;-0.30;99.90;;;;;;4783758;29;20059;-71
2023/01/02 05:14:02;;;;;;;8.07;1.95;;;-0.30;99.90;;;;;;4784954;29;20047;-72
2023/01/02 05:16:30;;;;;;;7.80;3.90;;;-0.30;99.90;;;;;;4782555;29;20051;-71
2023/01/02 05:18:57;;;;;;;10.15;4.45;;;-0.30;99.90;;;;;;4784191;29;20051;-70
2023/01/02 05:24:11;;;;;;;7.32;3.33;;;-0.30;99.90;;;;;;4780961;29;20120;-72
2023/01/02 05:26:38;;;;;;;6.95;2.13;;;-0.30;99.90;;;;;;4774272;30;20082;-72
2023/01/02 05:29:06;;;;;;;10.00;1.85;;;-0.30;99.90;;;;;;4783200;29;20051;-71
2023/01/02 05:31:33;;;;;;;3.78;1.05;;;-0.30;99.90;;;;;;4784387;29;20058;-71
2023/01/02 05:34:01;;;;;;;9.30;1.70;;;-0.30;99.90;;;;;;4783917;29;20532;-71
2023/01/02 05:36:28;;;;;;;5.30;2.03;;;-0.30;99.90;;;;;;4782666;29;20079;-73
2023/01/02 05:38:56;;;;;;;6.30;1.50;;;-0.30;99.90;;;;;;4783332;29;20428;-71
2023/01/02 05:41:25;;;;;;;7.05;1.70;;;-0.30;99.90;;;;;;4786320;30;20142;-71
2023/01/02 05:43:54;;;;;;;9.43;1.90;;;-0.30;99.90;;;;;;4781329;30;20075;-71
2023/01/02 05:46:22;;;;;;;3.47;1.55;;;-0.30;99.90;;;;;;4779952;30;20153;-71
2023/01/02 05:48:49;;;;;;;6.85;2.30;;;-0.40;99.90;;;;;;4785245;29;20059;-72
2023/01/02 05:51:19;;;;;;;7.35;1.50;;;-0.30;99.90;;;;;;4802654;29;20459;-71
2023/01/02 05:53:46;;;;;;;10.32;1.90;;;-0.30;99.90;;;;;;4787767;29;20595;-72
2023/01/02 05:56:16;;;;;;;7.20;1.70;;;-0.30;99.90;;;;;;4789149;29;20047;-71
2023/01/02 05:58:47;;;;;;;5.40;1.73;;;-0.30;99.90;;;;;;4787431;29;20150;-71
2023/01/02 06:01:16;;;;;;;5.53;1.25;;;-0.30;99.90;;;;;;4784852;30;20054;-72
2023/01/02 06:03:45;;;;;;;3.30;1.08;;;-0.20;99.90;;;;;;4781226;29;20112;-71
2023/01/02 06:06:14;;;;;;;10.38;1.40;;;-0.10;99.90;;;;;;4773344;30;20493;-71
2023/01/02 06:08:42;;;;;;;8.70;1.10;;;0.00;99.90;;;;;;4777944;29;20071;-71
2023/01/02 06:11:10;;;;;;;5.75;1.58;;;0.00;99.90;;;;;;4788066;29;22075;-71
2023/01/02 06:13:39;;;;;;;7.65;1.30;;;0.00;99.90;;;;;;4786494;29;20066;-72
2023/01/02 06:16:10;;;;;;;12.35;1.23;;;0.10;99.90;;;;;;4788139;29;20078;-71
2023/01/02 06:18:39;;;;;;;1.90;0.73;;;0.10;99.90;;;;;;4786676;29;20441;-71
2023/01/02 06:21:09;;;;;;;5.30;1.42;;;0.10;99.90;;;;;;4786718;29;20440;-71
2023/01/02 06:23:37;;;;;;;3.65;1.00;;;0.10;99.90;;;;;;4787613;29;20059;-71
2023/01/02 06:26:07;;;;;;;7.13;1.10;;;0.10;99.90;;;;;;4786700;30;20197;-71
2023/01/02 06:28:34;;;;;;;4.60;1.05;;;0.10;99.90;;;;;;4786112;29;20612;-70
2023/01/02 06:31:04;;;;;;;4.57;0.80;;;0.10;99.90;;;;;;4786266;29;20142;-71
2023/01/02 06:33:33;;;;;;;5.03;0.93;;;0.10;99.90;;;;;;4786385;29;20054;-71
2023/01/02 06:36:03;;;;;;;11.68;3.35;;;0.10;99.90;;;;;;4786040;29;20055;-71
2023/01/02 06:38:30;;;;;;;8.90;2.10;;;0.20;99.90;;;;;;4787396;29;20480;-71
2023/01/02 06:41:00;;;;;;;2.90;1.20;;;0.20;99.90;;;;;;4782211;29;20056;-71
2023/01/02 06:43:30;;;;;;;5.22;1.15;;;0.10;99.90;;;;;;4776997;29;20051;-71
2023/01/02 06:45:58;;;;;;;7.07;1.25;;;0.20;99.90;;;;;;4785987;29;20499;-78
2023/01/02 06:48:26;;;;;;;12.00;1.42;;;0.20;99.90;;;;;;4781337;30;20051;-77
2023/01/02 06:50:56;;;;;;;3.53;1.00;;;0.20;99.90;;;;;;4784832;30;20067;-78
2023/01/02 06:53:24;;;;;;;6.57;1.13;;;0.20;99.90;;;;;;4787631;29;20115;-77
2023/01/02 06:55:52;;;;;;;3.60;1.27;;;0.30;99.90;;;;;;4784875;29;20082;-78
2023/01/02 06:58:24;;;;;;;2.17;1.45;;;0.30;99.90;;;;;;4780150;30;20547;-78
2023/01/02 07:00:52;;;;;;;8.57;2.38;;;0.40;99.90;;;;;;4783143;29;20538;-76
2023/01/02 07:03:20;;;;;;;11.32;1.92;;;0.40;99.90;;;;;;4768932;30;20055;-76
2023/01/02 07:05:48;;;;;;;8.02;2.08;;;0.40;99.90;;;;;;4771589;30;20051;-77
2023/01/02 07:08:17;;;;;;;7.28;2.15;;;0.40;99.90;;;;;;4790141;29;20051;-76
2023/01/02 07:10:45;;;;;;;8.43;3.55;;;0.40;99.90;;;;;;4785142;29;20058;-72
2023/01/02 07:13:12;;;;;;;9.68;2.50;;;0.40;99.90;;;;;;4780208;29;20055;-75
2023/01/02 07:15:43;;;;;;;9.48;1.50;;;0.40;99.90;;;;;;4770143;30;20071;-75
2023/01/02 07:18:11;;;;;;;7.95;1.40;;;0.40;99.90;;;;;;4781148;29;20052;-76
2023/01/02 07:20:38;;;;;;;7.90;1.60;;;0.30;99.90;;;;;;4768410;30;20055;-75
2023/01/02 07:23:06;;;;;;;9.00;1.42;;;0.30;99.90;;;;;;4777228;29;20055;-70
2023/01/02 07:25:35;;;;;;;6.47;1.10;;;0.30;99.90;;;;;;4772800;29;20068;-71
2023/01/02 07:28:03;;;;;;;6.72;1.50;;;0.20;99.90;;;;;;4785610;29;20066;-69
2023/01/02 07:30:31;;;;;;;3.05;1.13;;;0.30;99.90;;;;;;4786121;29;20082;-70
2023/01/02 07:32:58;;;;;;;8.15;1.40;;;0.30;99.90;;;;;;4777207;29;20060;-75
2023/01/02 07:35:26;;;;;;;5.63;1.02;;;0.40;99.90;;;;;;4785377;29;20052;-77
2023/01/02 07:37:53;;;;;;;6.00;2.00;;;0.50;99.90;;;;;;4778239;30;20569;-74
2023/01/02 07:40:21;;;;;;;7.25;1.52;;;0.50;99.90;;;;;;4778400;29;20047;-69
2023/01/02 07:42:50;;;;;;;6.43;1.27;;;0.50;99.90;;;;;;4773492;30;20458;-69
2023/01/02 07:45:17;;;;;;;3.20;1.23;;;0.50;99.90;;;;;;4783946;29;20058;-71
2023/01/02 07:47:45;;;;;;;8.20;1.50;;;0.50;99.90;;;;;;4775204;30;20082;-76
2023/01/02 07:50:12;;;;;;;6.97;1.88;;;0.50;99.90;;;;;;4775823;30;20051;-70
2023/01/02 07:52:42;;;;;;;8.80;2.08;;;0.60;99.90;;;;;;4778757;30;20055;-70
2023/01/02 07:55:10;;;;;;;9.35;1.30;;;0.70;99.90;;;;;;4782478;30;20047;-75
2023/01/02 07:57:38;;;;;;;5.90;1.48;;;0.70;99.90;;;;;;4785996;29;20068;-75
2023/01/02 08:00:10;;;;;;;9.10;1.60;;;0.70;99.90;;;;;;4780687;30;20145;-70
2023/01/02 08:02:41;;;;;;;5.40;1.42;;;0.70;99.90;;;;;;4784163;29;20051;-70
2023/01/02 08:05:09;;;;;;;6.63;1.85;;;0.80;99.90;;;;;;4783197;29;20059;-70
2023/01/02 08:07:37;;;;;;;6.20;1.30;;;0.80;99.90;;;;;;4779995;29;20058;-70
2023/01/02 08:10:05;;;;;;;5.47;1.40;;;0.80;99.90;;;;;;4780608;30;20047;-69
2023/01/02 08:12:33;;;;;;;8.15;1.63;;;0.80;99.90;;;;;;4777809;29;20449;-70
2023/01/02 08:15:01;;;;;;;5.80;1.48;;;0.90;99.90;;;;;;4782102;29;20174;-69
2023/01/02 08:17:31;;;;;;;3.40;1.70;;;0.90;99.90;;;;;;4778637;29;20058;-71
2023/01/02 08:19:59;;;;;;;4.90;1.90;;;0.90;99.90;;;;;;4777724;29;20121;-70
2023/01/02 08:22:26;;;;;;;6.88;1.92;;;1.00;99.90;;;;;;4775105;29;20043;-71
2023/01/02 08:24:53;;;;;;;12.38;2.85;;;1.00;99.90;;;;;;4777809;29;20052;-69
2023/01/02 08:27:21;;;;;;;8.38;2.00;;;0.90;99.90;;;;;;4781947;29;20078;-70
2023/01/02 08:29:49;;;;;;;10.93;2.75;;;0.90;99.90;;;;;;4781787;29;20063;-71
2023/01/02 08:32:18;;;;;;;13.25;4.10;;;0.90;99.90;;;;;;4780255;29;20134;-71
2023/01/02 08:34:47;;;;;;;10.63;2.50;;;0.80;99.90;;;;;;4783982;29;20055;-77
2023/01/02 08:37:15;;;;;;;9.32;2.67;;;0.80;99.90;;;;;;4785392;29;20047;-76
2023/01/02 08:39:42;;;;;;;11.98;3.78;;;0.80;99.90;;;;;;4782466;29;20061;-76
2023/01/02 08:42:09;;;;;;;12.05;2.38;;;0.80;99.90;;;;;;4781413;30;20051;-75
2023/01/02 08:44:37;;;;;;;7.53;2.35;;;0.80;99.90;;;;;;4781880;30;20066;-76
2023/01/02 08:47:05;;;;;;;7.22;1.88;;;0.90;99.90;;;;;;4778666;29;20047;-75
2023/01/02 08:49:33;;;;;;;5.80;2.15;;;1.00;99.90;;;;;;4773941;30;20142;-72
2023/01/02 08:52:02;;;;;;;5.72;1.77;;;1.00;99.90;;;;;;4784375;29;20047;-70
2023/01/02 08:54:30;;;;;;;10.05;1.95;;;1.00;99.90;;;;;;4782176;29;20079;-70
2023/01/02 08:56:57;;;;;;;7.90;1.15;;;1.00;99.90;;;;;;4782717;29;20043;-71
2023/01/02 08:59:26;;;;;;;12.23;2.03;;;1.10;99.90;;;;;;4780219;29;20061;-71
2023/01/02 09:01:54;;;;;;;7.90;1.48;;;1.10;99.90;;;;;;4784134;29;20074;-71
2023/01/02 09:04:22;;;;;;;7.78;1.40;;;1.20;99.90;;;;;;4781476;29;20100;-72
2023/01/02 09:06:49;;;;;;;10.43;2.28;;;1.20;99.90;;;;;;4774426;29;20138;-72
2023/01/02 09:09:18;;;;;;;9.32;1.48;;;1.20;99.90;;;;;;4779545;29;20108;-73
2023/01/02 09:11:49;;;;;;;8.38;2.35;;;1.20;99.90;;;;;;4783190;29;20059;-72
2023/01/02 09:14:18;;;;;;;7.70;2.38;;;1.20;99.90;;;;;;4781143;30;20063;-71
2023/01/02 09:16:46;;;;;;;6.80;1.85;;;1.10;99.90;;;;;;4777845;29;20525;-72
2023/01/02 09:19:13;;;;;;;7.60;2.00;;;1.00;99.90;;;;;;4779552;29;20463;-71
2023/01/02 09:21:48;;;;;;;4.63;1.40;;;1.00;99.90;;;;;;4777245;29;20066;-73
2023/01/02 09:24:27;;;;;;;4.60;1.35;;;1.10;99.90;;;;;;4794825;29;20049;-73
2023/01/02 09:26:55;;;;;;;5.57;1.10;;;1.10;99.90;;;;;;4776971;29;20063;-72
2023/01/02 09:29:23;;;;;;;8.02;1.80;;;1.10;99.90;;;;;;4782243;29;20112;-72
2023/01/02 09:31:54;;;;;;;5.03;1.40;;;1.10;99.90;;;;;;4780439;29;20443;-72
2023/01/02 09:34:22;;;;;;;3.17;1.35;;;1.10;99.90;;;;;;4783037;29;20112;-70
2023/01/02 09:36:50;;;;;;;9.93;1.95;;;1.10;99.90;;;;;;4779248;29;20043;-70
2023/01/02 09:39:17;;;;;;;6.05;1.58;;;1.10;99.90;;;;;;4782767;29;20134;-71
2023/01/02 09:41:51;;;;;;;5.43;1.17;;;1.10;99.90;;;;;;4781939;29;20519;-71
2023/01/02 09:44:23;;;;;;;7.70;1.50;;;1.10;99.90;;;;;;4779989;29;20074;-71
2023/01/02 09:46:54;;;;;;;5.13;1.33;;;1.10;99.90;;;;;;4778765;29;20389;-71
2023/01/02 09:49:28;;;;;;;6.47;1.42;;;1.10;99.90;;;;;;4768630;30;20079;-71
2023/01/02 09:51:56;;;;;;;5.70;1.08;;;1.20;99.90;;;;;;4780631;29;20455;-70
2023/01/02 09:54:27;;;;;;;7.55;1.60;;;1.20;99.90;;;;;;4779634;29;20055;-71
2023/01/02 09:57:23;;;;;;;8.38;1.48;;;1.20;99.90;;;;;;4780076;29;20055;-69
2023/01/02 09:59:58;;;;;;;3.67;1.35;;;1.30;99.90;;;;;;4752595;29;92529;-71
2023/01/02 10:02:48;;;;;;;8.25;1.25;;;1.50;99.90;;;;;;4788400;29;20055;-70
2023/01/02 10:06:05;;;;;;;6.10;1.45;;;1.50;99.90;;;;;;4792719;29;20087;-71
2023/01/02 10:08:49;;;;;;;9.73;1.70;;;1.50;99.90;;;;;;4794270;29;20421;-71
2023/01/02 10:11:40;;;;;;;2.78;1.30;;;1.50;99.90;;;;;;4794007;29;20058;-70
2023/01/02 10:14:18;;;;;;;7.78;2.47;;;1.50;99.90;;;;;;4805649;29;20086;-70
2023/01/02 10:16:51;;;;;;;7.43;1.75;;;1.60;99.90;;;;;;4792778;29;20057;-71
2023/01/02 10:19:24;;;;;;;6.75;1.65;;;1.70;99.90;;;;;;4791973;29;20093;-70
2023/01/02 10:21:58;;;;;;;6.70;1.90;;;1.90;99.90;;;;;;4792885;29;20047;-71
2023/01/02 10:24:39;;;;;;;5.47;1.40;;;2.10;99.90;;;;;;4799065;29;20103;-73
2023/01/02 10:27:13;;;;;;;6.65;1.70;;;2.50;99.90;;;;;;4795135;29;21188;-71
2023/01/02 10:29:49;;;;;;;2.88;1.13;;;3.10;99.90;;;;;;4784860;29;20070;-70
2023/01/02 10:32:20;;;;;;;3.88;0.90;;;3.70;99.90;;;;;;4789043;29;20051;-69
2023/01/02 10:34:59;;;;;;;6.40;1.48;;;4.20;99.90;;;;;;4789779;29;20051;-72
2023/01/02 10:37:27;;;;;;;6.13;1.25;;;4.70;99.90;;;;;;4795347;29;20111;-70
2023/01/02 10:39:55;;;;;;;4.53;1.45;;;4.30;99.90;;;;;;4778430;29;20051;-73
2023/01/02 10:42:24;;;;;;;4.85;1.00;;;3.70;99.90;;;;;;4787367;29;20421;-72
2023/01/02 10:44:53;;;;;;;5.85;1.42;;;3.10;99.90;;;;;;4803132;29;20524;-71
2023/01/02 10:47:30;;;;;;;6.78;1.98;;;2.70;99.90;;;;;;4786801;29;20112;-71
2023/01/02 10:49:57;;;;;;;10.65;1.70;;;2.30;99.90;;;;;;4798115;29;20050;-70
2023/01/02 10:52:32;;;;;;;4.70;1.23;;;2.50;99.90;;;;;;4786115;29;20058;-71
2023/01/02 10:55:01;;;;;;;9.38;1.83;;;3.00;99.90;;;;;;4781635;29;20055;-71
2023/01/02 10:57:40;;;;;;;4.28;1.90;;;3.00;99.90;;;;;;4779513;30;20043;-71
2023/01/02 11:00:27;;;;;;;5.63;1.73;;;2.70;99.90;;;;;;4781879;30;20117;-72
2023/01/02 11:02:59;;;;;;;9.73;1.65;;;2.30;99.90;;;;;;4770584;30;20066;-71
2023/01/02 11:05:29;;;;;;;8.27;1.63;;;2.10;99.90;;;;;;4775772;30;20086;-73
2023/01/02 11:07:58;;;;;;;5.68;1.60;;;2.00;99.90;;;;;;4783350;29;20054;-71
2023/01/02 11:10:29;;;;;;;8.38;1.50;;;1.90;99.90;;;;;;4781205;29;20506;-70
2023/01/02 11:13:01;;;;;;;5.60;1.80;;;1.70;99.90;;;;;;4779728;29;20513;-71
2023/01/02 11:15:34;;;;;;;4.50;1.83;;;1.60;99.90;;;;;;4789908;29;20054;-71
2023/01/02 11:18:04;;;;;;;12.30;2.40;;;1.60;99.90;;;;;;4785292;29;20061;-71
2023/01/02 11:20:34;;;;;;;10.32;2.70;;;1.50;99.90;;;;;;4781995;29;20056;-70
2023/01/02 11:23:03;;;;;;;5.53;1.55;;;1.50;99.90;;;;;;4784066;29;20066;-71
2023/01/02 11:25:38;;;;;;;9.02;1.80;;;1.40;99.90;;;;;;4782373;29;20070;-70
2023/01/02 11:28:07;;;;;;;9.77;2.42;;;1.40;99.90;;;;;;4785798;29;20059;-72
2023/01/02 11:30:43;;;;;;;7.97;1.83;;;1.40;99.90;;;;;;4775249;29;20059;-73
2023/01/02 11:33:25;;;;;;;6.38;2.22;;;1.30;99.90;;;;;;4783705;30;20051;-73
2023/01/02 11:35:55;;;;;;;5.97;1.58;;;1.30;99.90;;;;;;4779573;29;20048;-70
2023/01/02 11:38:26;;;;;;;8.57;2.47;;;1.30;99.90;;;;;;4776306;30;20055;-72
2023/01/02 11:41:00;;;;;;;7.90;1.90;;;1.20;99.90;;;;;;4779394;29;20118;-72
2023/01/02 11:43:50;;;;;;;9.85;1.50;;;1.10;99.90;;;;;;4781228;29;20059;-73
2023/01/02 11:46:30;;;;;;;6.65;2.17;;;1.10;99.90;;;;;;4760687;30;20048;-73
2023/01/02 11:49:09;;;;;;;5.80;2.47;;;1.00;99.90;;;;;;4784892;30;20079;-71
2023/01/02 11:51:39;;;;;;;3.58;2.17;;;1.00;99.90;;;;;;4781026;29;20051;-72
2023/01/02 11:54:16;;;;;;;7.88;1.48;;;0.90;99.90;;;;;;4797200;29;20430;-71
2023/01/02 11:56:46;;;;;;;7.57;1.92;;;0.90;99.90;;;;;;4776378;30;20397;-70
2023/01/02 11:59:18;;;;;;;15.43;2.88;;;0.80;99.90;;;;;;4777695;30;20516;-70
2023/01/02 12:01:58;;;;;;;11.30;3.33;;;0.80;99.90;;;;;;4777402;30;20051;-71
2023/01/02 12:04:26;;;;;;;8.07;2.80;;;0.80;99.90;;;;;;4775282;29;20047;-71
2023/01/02 12:07:21;;;;;;;9.23;3.10;;;0.80;99.90;;;;;;4777845;29;20425;-72
2023/01/02 12:09:59;;;;;;;8.48;3.33;;;0.80;99.90;;;;;;4778710;29;20553;-72
2023/01/02 12:12:46;;;;;;;9.23;1.70;;;0.80;99.90;;;;;;4770230;30;20051;-70
2023/01/02 12:16:03;;;;;;;10.38;1.67;;;0.90;99.90;;;;;;4775454;29;20332;-70
2023/01/02 12:18:53;;;;;;;7.45;1.67;;;1.00;99.90;;;;;;4742810;30;20052;-71
2023/01/02 12:21:24;;;;;;;7.68;1.67;;;1.10;99.90;;;;;;4758118;30;20059;-73
2023/01/02 12:24:28;;;;;;;16.77;2.00;;;1.20;99.90;;;;;;4765548;30;20063;-72
2023/01/02 12:27:05;;;;;;;5.72;2.03;;;1.10;99.90;;;;;;4772284;29;20071;-72
2023/01/02 12:30:00;;;;;;;8.52;1.50;;;1.10;99.90;;;;;;4776933;29;20058;-71
2023/01/02 12:33:18;;;;;;;12.57;1.92;;;1.10;99.90;;;;;;4777485;30;20055;-72
2023/01/02 12:36:10;;;;;;;8.95;1.55;;;1.10;99.90;;;;;;4779432;30;20074;-71
2023/01/02 12:38:57;;;;;;;7.78;1.48;;;1.10;99.90;;;;;;4773780;30;20486;-71
2023/01/02 12:41:31;;;;;;;7.47;1.83;;;1.10;99.90;;;;;;4779039;29;20052;-71
2023/01/02 12:44:31;;;;;;;7.35;1.88;;;1.00;99.90;;;;;;4767968;30;20059;-76
2023/01/02 12:47:23;;;;;;;8.40;2.13;;;1.00;99.90;;;;;;4778949;29;20055;-75
2023/01/02 12:50:35;;;;;;;12.07;1.80;;;1.00;99.90;;;;;;4783647;29;20060;-77
2023/01/02 12:53:20;;;;;;;7.40;1.85;;;0.90;99.90;;;;;;4774631;29;20501;-74
2023/01/02 12:56:00;;;;;;;11.10;2.42;;;0.90;99.90;;;;;;4780869;29;20063;-75
2023/01/02 12:58:44;;;;;;;8.80;1.80;;;0.90;99.90;;;;;;4796767;29;20059;-74
2023/01/02 13:01:20;;;;;;;12.95;1.67;;;1.00;99.90;;;;;;4767796;29;20142;-75
2023/01/02 13:04:02;;;;;;;11.38;2.33;;;1.10;99.90;;;;;;4773131;30;20051;-71
2023/01/02 13:06:43;;;;;;;7.70;1.75;;;1.10;99.90;;;;;;4776299;30;20052;-74
2023/01/02 13:09:21;;;;;;;6.53;2.03;;;1.10;99.90;;;;;;4770993;29;20513;-75
2023/01/02 13:11:56;;;;;;;5.47;1.48;;;1.10;99.90;;;;;;4780420;29;20150;-72
2023/01/02 13:14:34;;;;;;;9.13;1.88;;;1.10;99.90;;;;;;4785858;29;20058;-72
2023/01/02 13:17:39;;;;;;;8.65;1.77;;;1.20;99.90;;;;;;4780026;29;20134;-69
2023/01/02 13:20:20;;;;;;;10.73;2.08;;;1.20;99.90;;;;;;4767838;30;20734;-69
2023/01/02 13:23:05;;;;;;;5.40;2.10;;;1.30;99.90;;;;;;4782597;29;20138;-69